Campanya meteocatpedra

Dades de l'estació automàtica Barcelona - el Raval

?
?
Resum diari 22:00 TU
Dades diàries de l'estació meteorològica
Temperatura mitjana 21.1 °C
Temperatura màxima 23.3 °C 11:19 TU
Temperatura mínima 19.5 °C 21:14 TU
Humitat relativa mitjana 68%
Precipitació acumulada 0.0 mm
Ratxa màxima del vent (10 m) 40.0 km/h - 81º 10:51 TU
Pressió atmosfèrica mitjana 1011.9 hPa
Irradiació solar global 24.6 MJ/m2

El tram horari està expressat en Temps Universal (TU). Cal sumar una hora en horari d'hivern i dues en horari d'estiu per passar a l'hora oficial.

Barcelona - el Raval

Metadades estació meteorol´gica
Municipi Barcelona
Comarca Barcelonès
Altitud 33 m
Data alta 11.10.2006
Estat actual Operativa
Dades de període
Període
TU
TM
°C
TX
°C
TN
°C
HRM
%
PPT
mm
VVM (10 m)
km/h
DVM (10 m)
graus
VVX (10 m)
km/h
PM
hPa
RS
W/m2
00:00 - 00:30 20.1 20.1 20.0 69 0.0 10.8 74 22.3 1013.7 0
00:30 - 01:00 19.9 20.0 19.8 69 0.0 12.2 82 23.0 1013.2 0
01:00 - 01:30 19.9 20.0 19.8 68 0.0 12.6 78 29.9 1012.7 0
01:30 - 02:00 20.0 20.0 20.0 68 0.0 12.6 75 26.3 1012.2 0
02:00 - 02:30 20.0 20.1 19.9 67 0.0 11.9 84 25.6 1012.1 0
02:30 - 03:00 19.8 19.9 19.7 70 0.0 12.2 82 26.3 1011.8 0
03:00 - 03:30 19.7 19.9 19.6 71 0.0 7.9 87 19.8 1011.9 0
03:30 - 04:00 19.8 19.9 19.8 69 0.0 8.3 93 16.9 1012.1 0
04:00 - 04:30 19.7 19.8 19.7 71 0.0 9.0 81 24.5 1012.3 0
04:30 - 05:00 19.8 20.0 19.6 71 0.0 9.7 77 20.9 1012.2 20
05:00 - 05:30 20.3 20.5 20.1 65 0.0 7.2 68 16.9 1012.4 70
05:30 - 06:00 20.6 20.8 20.4 62 0.0 9.7 66 23.8 1012.3 126
06:00 - 06:30 21.1 21.2 20.9 62 0.0 13.3 78 30.6 1012.1 161
06:30 - 07:00 21.1 21.2 21.0 64 0.0 14.0 84 29.5 1012.3 182
07:00 - 07:30 21.3 21.4 21.2 64 0.0 14.0 77 30.2 1012.4 196
07:30 - 08:00 21.5 21.8 21.3 64 0.0 15.1 84 31.3 1012.4 269
08:00 - 08:30 21.6 21.9 21.4 64 0.0 15.5 87 34.2 1012.2 371
08:30 - 09:00 22.1 22.3 21.9 63 0.0 17.6 87 36.4 1012.3 514
09:00 - 09:30 21.9 22.3 21.7 65 0.0 18.0 91 33.5 1012.4 514
09:30 - 10:00 22.1 22.5 21.7 66 0.0 18.0 88 35.6 1012.4 780
10:00 - 10:30 22.5 22.9 22.2 65 0.0 18.4 90 33.5 1012.0 758
10:30 - 11:00 22.2 22.6 21.8 67 0.0 22.3 89 40.0 1011.7 832
11:00 - 11:30 22.8 23.3 22.2 64 0.0 14.4 95 36.4 1012.1 838
11:30 - 12:00 22.7 23.1 22.4 63 0.0 16.6 96 36.4 1011.8 873
12:00 - 12:30 22.7 23.2 22.2 64 0.0 18.0 88 35.6 1011.6 862
12:30 - 13:00 22.7 23.2 22.1 65 0.0 14.8 95 29.9 1011.2 877
13:00 - 13:30 22.7 23.3 21.5 65 0.0 13.7 97 36.0 1011.2 806
13:30 - 14:00 22.5 22.9 21.7 67 0.0 13.0 86 25.2 1011.1 782
14:00 - 14:30 22.2 22.5 21.9 67 0.0 16.6 92 37.4 1010.7 697
14:30 - 15:00 22.1 22.4 21.8 68 0.0 15.8 83 34.9 1010.7 687
15:00 - 15:30 21.9 22.3 21.4 69 0.0 17.3 95 39.6 1010.9 620
15:30 - 16:00 21.8 22.2 21.4 69 0.0 16.6 92 38.5 1011.1 544
16:00 - 16:30 21.8 22.0 21.7 67 0.0 18.7 85 34.9 1011.2 456
16:30 - 17:00 21.6 21.9 21.3 68 0.0 18.7 83 32.8 1011.2 344
17:00 - 17:30 21.3 21.6 21.0 70 0.0 16.9 84 36.0 1011.3 251
17:30 - 18:00 21.0 21.2 20.9 72 0.0 12.2 79 28.4 1011.4 149
18:00 - 18:30 21.0 21.2 20.8 71 0.0 10.4 78 23.8 1011.4 75
18:30 - 19:00 21.0 21.1 20.9 69 0.0 10.8 80 22.3 1011.4 24
19:00 - 19:30 21.0 21.1 20.8 69 0.0 11.2 79 23.4 1011.3 1
19:30 - 20:00 20.7 20.8 20.5 70 0.0 12.2 90 24.5 1011.5 0
20:00 - 20:30 20.4 20.5 20.1 72 0.0 10.8 85 21.6 1012.1 0
20:30 - 21:00 19.9 20.1 19.6 76 0.0 7.9 92 19.4 1012.5 0
21:00 - 21:30 19.6 19.7 19.5 78 0.0 7.6 81 14.8 1012.6 0
21:30 - 22:00 19.8 20.0 19.7 76 0.0 10.1 87 17.3 1012.8 0
22:00 - 22:30 20.1 20.2 20.0 72 0.0 12.6 88 27.0 1012.7 0
22:30 - 23:00 20.1 20.2 20.0 73 0.0 14.4 86 26.6 1012.4 0

Les dades en taronja només han passat un control de qualitat automàtic. Resta pendent la seva validació definitiva.